sensor_id;sensor_type;location;lat;lon;timestamp;P1;durP1;ratioP1;P2;durP2;ratioP2
7707;SDS011;3896;48.758;8.888;2022-10-30T00:00:28;5.70;;;3.63;;
7707;SDS011;3896;48.758;8.888;2022-10-30T00:02:53;9.57;;;3.60;;
7707;SDS011;3896;48.758;8.888;2022-10-30T00:05:19;7.83;;;3.30;;
7707;SDS011;3896;48.758;8.888;2022-10-30T00:07:45;7.10;;;3.20;;
7707;SDS011;3896;48.758;8.888;2022-10-30T00:10:11;3.50;;;2.20;;
7707;SDS011;3896;48.758;8.888;2022-10-30T00:12:37;7.90;;;3.53;;
7707;SDS011;3896;48.758;8.888;2022-10-30T00:15:03;5.73;;;3.00;;
7707;SDS011;3896;48.758;8.888;2022-10-30T00:17:29;7.93;;;3.33;;
7707;SDS011;3896;48.758;8.888;2022-10-30T00:19:55;8.13;;;3.07;;
7707;SDS011;3896;48.758;8.888;2022-10-30T00:22:20;6.73;;;3.27;;
7707;SDS011;3896;48.758;8.888;2022-10-30T00:24:46;10.87;;;3.83;;
7707;SDS011;3896;48.758;8.888;2022-10-30T00:27:12;5.83;;;4.13;;
7707;SDS011;3896;48.758;8.888;2022-10-30T00:29:37;9.00;;;3.73;;
7707;SDS011;3896;48.758;8.888;2022-10-30T00:32:03;8.03;;;3.63;;
7707;SDS011;3896;48.758;8.888;2022-10-30T00:34:29;3.53;;;2.83;;
7707;SDS011;3896;48.758;8.888;2022-10-30T00:36:54;6.53;;;3.30;;
7707;SDS011;3896;48.758;8.888;2022-10-30T00:39:20;7.20;;;2.80;;
7707;SDS011;3896;48.758;8.888;2022-10-30T00:41:45;9.10;;;3.47;;
7707;SDS011;3896;48.758;8.888;2022-10-30T00:46:59;7.37;;;3.17;;
7707;SDS011;3896;48.758;8.888;2022-10-30T00:49:36;6.80;;;4.27;;
7707;SDS011;3896;48.758;8.888;2022-10-30T00:52:07;4.80;;;3.33;;
7707;SDS011;3896;48.758;8.888;2022-10-30T00:54:34;6.47;;;3.43;;
7707;SDS011;3896;48.758;8.888;2022-10-30T00:57:01;5.00;;;2.83;;
7707;SDS011;3896;48.758;8.888;2022-10-30T00:59:29;6.07;;;2.50;;
7707;SDS011;3896;48.758;8.888;2022-10-30T01:01:57;5.77;;;2.87;;
7707;SDS011;3896;48.758;8.888;2022-10-30T01:04:25;8.77;;;3.10;;
7707;SDS011;3896;48.758;8.888;2022-10-30T01:06:51;6.23;;;2.83;;
7707;SDS011;3896;48.758;8.888;2022-10-30T01:09:20;7.63;;;2.90;;
7707;SDS011;3896;48.758;8.888;2022-10-30T01:11:46;6.27;;;3.70;;
7707;SDS011;3896;48.758;8.888;2022-10-30T01:14:13;7.07;;;3.53;;
7707;SDS011;3896;48.758;8.888;2022-10-30T01:16:49;9.07;;;3.17;;
7707;SDS011;3896;48.758;8.888;2022-10-30T01:19:24;6.13;;;3.40;;
7707;SDS011;3896;48.758;8.888;2022-10-30T01:22:08;6.40;;;3.47;;
7707;SDS011;3896;48.758;8.888;2022-10-30T01:29:56;7.70;;;3.27;;
7707;SDS011;3896;48.758;8.888;2022-10-30T01:35:04;8.53;;;3.73;;
7707;SDS011;3896;48.758;8.888;2022-10-30T01:37:42;6.07;;;3.33;;
7707;SDS011;3896;48.758;8.888;2022-10-30T01:40:26;12.00;;;4.10;;
7707;SDS011;3896;48.758;8.888;2022-10-30T01:42:53;6.73;;;3.37;;
7707;SDS011;3896;48.758;8.888;2022-10-30T01:58:59;5.97;;;3.10;;
7707;SDS011;3896;48.758;8.888;2022-10-30T02:01:31;6.43;;;3.40;;
7707;SDS011;3896;48.758;8.888;2022-10-30T02:03:59;8.50;;;2.97;;
7707;SDS011;3896;48.758;8.888;2022-10-30T02:06:26;7.37;;;3.33;;
7707;SDS011;3896;48.758;8.888;2022-10-30T02:08:54;7.70;;;3.00;;
7707;SDS011;3896;48.758;8.888;2022-10-30T02:11:21;4.83;;;2.40;;
7707;SDS011;3896;48.758;8.888;2022-10-30T02:13:49;4.93;;;2.80;;
7707;SDS011;3896;48.758;8.888;2022-10-30T02:16:18;8.83;;;3.47;;
7707;SDS011;3896;48.758;8.888;2022-10-30T02:18:43;9.63;;;2.90;;
7707;SDS011;3896;48.758;8.888;2022-10-30T02:21:09;6.63;;;3.23;;
7707;SDS011;3896;48.758;8.888;2022-10-30T02:23:35;6.23;;;3.20;;
7707;SDS011;3896;48.758;8.888;2022-10-30T02:26:01;6.73;;;2.90;;
7707;SDS011;3896;48.758;8.888;2022-10-30T02:28:27;7.30;;;3.57;;
7707;SDS011;3896;48.758;8.888;2022-10-30T02:30:52;2.60;;;2.40;;
7707;SDS011;3896;48.758;8.888;2022-10-30T02:33:18;8.57;;;3.43;;
7707;SDS011;3896;48.758;8.888;2022-10-30T02:35:44;7.73;;;3.90;;
7707;SDS011;3896;48.758;8.888;2022-10-30T02:38:09;6.97;;;2.60;;
7707;SDS011;3896;48.758;8.888;2022-10-30T02:40:35;10.10;;;3.23;;
7707;SDS011;3896;48.758;8.888;2022-10-30T02:43:00;6.43;;;3.40;;
7707;SDS011;3896;48.758;8.888;2022-10-30T02:45:26;7.73;;;3.37;;
7707;SDS011;3896;48.758;8.888;2022-10-30T02:47:52;8.37;;;3.07;;
7707;SDS011;3896;48.758;8.888;2022-10-30T02:50:17;4.73;;;2.90;;
7707;SDS011;3896;48.758;8.888;2022-10-30T02:52:43;19.90;;;4.33;;
7707;SDS011;3896;48.758;8.888;2022-10-30T02:55:09;4.70;;;3.03;;
7707;SDS011;3896;48.758;8.888;2022-10-30T02:57:34;3.90;;;2.57;;
7707;SDS011;3896;48.758;8.888;2022-10-30T03:00:00;5.13;;;3.03;;
7707;SDS011;3896;48.758;8.888;2022-10-30T03:02:26;4.37;;;2.80;;
7707;SDS011;3896;48.758;8.888;2022-10-30T03:04:51;6.50;;;3.63;;
7707;SDS011;3896;48.758;8.888;2022-10-30T03:07:17;4.33;;;2.47;;
7707;SDS011;3896;48.758;8.888;2022-10-30T03:09:42;10.27;;;3.00;;
7707;SDS011;3896;48.758;8.888;2022-10-30T03:12:08;6.97;;;3.10;;
7707;SDS011;3896;48.758;8.888;2022-10-30T03:14:34;8.47;;;3.13;;
7707;SDS011;3896;48.758;8.888;2022-10-30T03:16:59;7.53;;;3.10;;
7707;SDS011;3896;48.758;8.888;2022-10-30T03:19:25;4.37;;;2.40;;
7707;SDS011;3896;48.758;8.888;2022-10-30T03:21:52;4.00;;;3.20;;
7707;SDS011;3896;48.758;8.888;2022-10-30T03:24:18;8.47;;;2.83;;
7707;SDS011;3896;48.758;8.888;2022-10-30T03:26:43;7.97;;;3.30;;
7707;SDS011;3896;48.758;8.888;2022-10-30T03:29:09;4.40;;;3.03;;
7707;SDS011;3896;48.758;8.888;2022-10-30T03:31:35;4.20;;;2.80;;
7707;SDS011;3896;48.758;8.888;2022-10-30T03:34:00;9.17;;;3.93;;
7707;SDS011;3896;48.758;8.888;2022-10-30T03:36:26;10.83;;;3.30;;
7707;SDS011;3896;48.758;8.888;2022-10-30T03:38:51;6.43;;;3.00;;
7707;SDS011;3896;48.758;8.888;2022-10-30T03:41:17;9.70;;;3.10;;
7707;SDS011;3896;48.758;8.888;2022-10-30T03:43:42;6.90;;;2.93;;
7707;SDS011;3896;48.758;8.888;2022-10-30T03:46:08;5.80;;;3.00;;
7707;SDS011;3896;48.758;8.888;2022-10-30T03:48:35;6.93;;;2.77;;
7707;SDS011;3896;48.758;8.888;2022-10-30T03:51:00;4.67;;;2.90;;
7707;SDS011;3896;48.758;8.888;2022-10-30T03:53:27;7.97;;;2.73;;
7707;SDS011;3896;48.758;8.888;2022-10-30T03:55:57;3.27;;;2.30;;
7707;SDS011;3896;48.758;8.888;2022-10-30T03:58:24;5.70;;;3.10;;
7707;SDS011;3896;48.758;8.888;2022-10-30T04:00:50;3.83;;;2.50;;
7707;SDS011;3896;48.758;8.888;2022-10-30T04:03:16;10.37;;;3.50;;
7707;SDS011;3896;48.758;8.888;2022-10-30T04:05:42;4.87;;;2.50;;
7707;SDS011;3896;48.758;8.888;2022-10-30T04:08:10;5.50;;;2.70;;
7707;SDS011;3896;48.758;8.888;2022-10-30T04:10:40;6.50;;;3.00;;
7707;SDS011;3896;48.758;8.888;2022-10-30T04:13:08;4.70;;;2.77;;
7707;SDS011;3896;48.758;8.888;2022-10-30T04:15:35;5.20;;;2.93;;
7707;SDS011;3896;48.758;8.888;2022-10-30T04:18:01;6.47;;;2.93;;
7707;SDS011;3896;48.758;8.888;2022-10-30T04:20:27;5.47;;;3.00;;
7707;SDS011;3896;48.758;8.888;2022-10-30T04:22:56;4.67;;;2.37;;
7707;SDS011;3896;48.758;8.888;2022-10-30T04:25:29;22.10;;;4.63;;
7707;SDS011;3896;48.758;8.888;2022-10-30T04:27:57;4.60;;;2.53;;
7707;SDS011;3896;48.758;8.888;2022-10-30T04:30:23;8.30;;;3.53;;
7707;SDS011;3896;48.758;8.888;2022-10-30T04:32:52;5.40;;;2.87;;
7707;SDS011;3896;48.758;8.888;2022-10-30T04:35:19;8.70;;;2.90;;
7707;SDS011;3896;48.758;8.888;2022-10-30T04:37:57;3.70;;;2.07;;
7707;SDS011;3896;48.758;8.888;2022-10-30T04:40:25;10.57;;;3.20;;
7707;SDS011;3896;48.758;8.888;2022-10-30T04:42:53;5.87;;;2.50;;
7707;SDS011;3896;48.758;8.888;2022-10-30T04:45:19;6.43;;;2.63;;
7707;SDS011;3896;48.758;8.888;2022-10-30T04:47:45;7.20;;;2.60;;
7707;SDS011;3896;48.758;8.888;2022-10-30T04:50:11;6.57;;;2.73;;
7707;SDS011;3896;48.758;8.888;2022-10-30T04:52:37;4.60;;;2.90;;
7707;SDS011;3896;48.758;8.888;2022-10-30T04:55:04;3.37;;;2.90;;
7707;SDS011;3896;48.758;8.888;2022-10-30T04:57:30;5.33;;;2.43;;
7707;SDS011;3896;48.758;8.888;2022-10-30T04:59:56;4.83;;;2.30;;
7707;SDS011;3896;48.758;8.888;2022-10-30T05:02:22;4.77;;;2.40;;
7707;SDS011;3896;48.758;8.888;2022-10-30T05:04:48;3.53;;;2.50;;
7707;SDS011;3896;48.758;8.888;2022-10-30T05:07:14;7.33;;;2.90;;
7707;SDS011;3896;48.758;8.888;2022-10-30T05:09:40;6.53;;;2.53;;
7707;SDS011;3896;48.758;8.888;2022-10-30T05:12:06;7.93;;;2.57;;
7707;SDS011;3896;48.758;8.888;2022-10-30T05:14:32;4.07;;;2.17;;
7707;SDS011;3896;48.758;8.888;2022-10-30T05:16:58;3.70;;;2.77;;
7707;SDS011;3896;48.758;8.888;2022-10-30T05:19:24;5.80;;;2.30;;
7707;SDS011;3896;48.758;8.888;2022-10-30T05:21:50;4.07;;;2.40;;
7707;SDS011;3896;48.758;8.888;2022-10-30T05:24:16;5.27;;;2.80;;
7707;SDS011;3896;48.758;8.888;2022-10-30T05:29:18;8.67;;;2.90;;
7707;SDS011;3896;48.758;8.888;2022-10-30T05:31:43;4.40;;;2.87;;
7707;SDS011;3896;48.758;8.888;2022-10-30T05:34:09;6.57;;;2.40;;
7707;SDS011;3896;48.758;8.888;2022-10-30T05:36:34;9.20;;;2.80;;
7707;SDS011;3896;48.758;8.888;2022-10-30T05:39:00;7.03;;;2.43;;
7707;SDS011;3896;48.758;8.888;2022-10-30T05:41:27;4.63;;;2.27;;
7707;SDS011;3896;48.758;8.888;2022-10-30T05:43:53;3.73;;;2.40;;
7707;SDS011;3896;48.758;8.888;2022-10-30T05:46:18;3.73;;;2.27;;
7707;SDS011;3896;48.758;8.888;2022-10-30T05:48:44;4.23;;;2.30;;
7707;SDS011;3896;48.758;8.888;2022-10-30T05:51:09;5.30;;;2.17;;
7707;SDS011;3896;48.758;8.888;2022-10-30T05:53:35;8.47;;;2.90;;
7707;SDS011;3896;48.758;8.888;2022-10-30T05:56:01;4.67;;;2.63;;
7707;SDS011;3896;48.758;8.888;2022-10-30T05:58:26;2.80;;;2.30;;
7707;SDS011;3896;48.758;8.888;2022-10-30T06:00:52;7.50;;;2.70;;
7707;SDS011;3896;48.758;8.888;2022-10-30T06:03:17;8.17;;;2.50;;
7707;SDS011;3896;48.758;8.888;2022-10-30T06:05:44;4.23;;;2.57;;
7707;SDS011;3896;48.758;8.888;2022-10-30T06:08:10;4.83;;;2.20;;
7707;SDS011;3896;48.758;8.888;2022-10-30T06:10:37;5.03;;;2.73;;
7707;SDS011;3896;48.758;8.888;2022-10-30T06:13:03;7.23;;;2.67;;
7707;SDS011;3896;48.758;8.888;2022-10-30T06:15:30;6.20;;;2.63;;
7707;SDS011;3896;48.758;8.888;2022-10-30T06:17:57;6.90;;;3.07;;
7707;SDS011;3896;48.758;8.888;2022-10-30T06:20:24;3.53;;;2.40;;
7707;SDS011;3896;48.758;8.888;2022-10-30T06:22:53;4.23;;;2.60;;
7707;SDS011;3896;48.758;8.888;2022-10-30T06:25:27;5.93;;;2.50;;
7707;SDS011;3896;48.758;8.888;2022-10-30T06:27:54;6.17;;;2.63;;
7707;SDS011;3896;48.758;8.888;2022-10-30T06:30:20;6.23;;;2.30;;
7707;SDS011;3896;48.758;8.888;2022-10-30T06:32:46;5.13;;;2.57;;
7707;SDS011;3896;48.758;8.888;2022-10-30T06:35:12;6.50;;;2.83;;
7707;SDS011;3896;48.758;8.888;2022-10-30T06:37:43;5.93;;;2.70;;
7707;SDS011;3896;48.758;8.888;2022-10-30T06:40:10;8.10;;;3.17;;
7707;SDS011;3896;48.758;8.888;2022-10-30T06:42:46;7.43;;;2.93;;
7707;SDS011;3896;48.758;8.888;2022-10-30T06:45:14;5.27;;;2.80;;
7707;SDS011;3896;48.758;8.888;2022-10-30T06:47:40;7.00;;;3.67;;
7707;SDS011;3896;48.758;8.888;2022-10-30T06:50:07;9.80;;;4.30;;
7707;SDS011;3896;48.758;8.888;2022-10-30T06:52:34;6.07;;;2.70;;
7707;SDS011;3896;48.758;8.888;2022-10-30T06:55:00;11.47;;;3.03;;
7707;SDS011;3896;48.758;8.888;2022-10-30T06:57:26;6.60;;;2.60;;
7707;SDS011;3896;48.758;8.888;2022-10-30T06:59:52;5.03;;;2.80;;
7707;SDS011;3896;48.758;8.888;2022-10-30T07:02:18;10.00;;;2.93;;
7707;SDS011;3896;48.758;8.888;2022-10-30T07:04:43;5.87;;;2.93;;
7707;SDS011;3896;48.758;8.888;2022-10-30T07:07:12;4.93;;;2.90;;
7707;SDS011;3896;48.758;8.888;2022-10-30T07:09:38;5.63;;;2.83;;
7707;SDS011;3896;48.758;8.888;2022-10-30T07:12:05;5.70;;;3.00;;
7707;SDS011;3896;48.758;8.888;2022-10-30T07:14:31;7.87;;;2.50;;
7707;SDS011;3896;48.758;8.888;2022-10-30T07:16:56;6.10;;;3.13;;
7707;SDS011;3896;48.758;8.888;2022-10-30T07:19:22;8.50;;;3.50;;
7707;SDS011;3896;48.758;8.888;2022-10-30T07:21:48;5.60;;;3.00;;
7707;SDS011;3896;48.758;8.888;2022-10-30T07:24:14;7.43;;;3.20;;
7707;SDS011;3896;48.758;8.888;2022-10-30T07:26:40;5.70;;;3.13;;
7707;SDS011;3896;48.758;8.888;2022-10-30T07:29:05;4.03;;;3.20;;
7707;SDS011;3896;48.758;8.888;2022-10-30T07:31:31;7.67;;;3.60;;
7707;SDS011;3896;48.758;8.888;2022-10-30T07:33:57;7.83;;;4.40;;
7707;SDS011;3896;48.758;8.888;2022-10-30T07:36:23;8.20;;;3.90;;
7707;SDS011;3896;48.758;8.888;2022-10-30T07:38:51;7.73;;;4.10;;
7707;SDS011;3896;48.758;8.888;2022-10-30T07:41:18;7.47;;;3.80;;
7707;SDS011;3896;48.758;8.888;2022-10-30T07:43:44;6.10;;;3.53;;
7707;SDS011;3896;48.758;8.888;2022-10-30T07:46:10;10.90;;;5.53;;
7707;SDS011;3896;48.758;8.888;2022-10-30T07:48:36;6.50;;;4.00;;
7707;SDS011;3896;48.758;8.888;2022-10-30T07:51:01;10.13;;;4.13;;
7707;SDS011;3896;48.758;8.888;2022-10-30T07:53:27;9.93;;;4.13;;
7707;SDS011;3896;48.758;8.888;2022-10-30T07:55:53;7.03;;;4.03;;
7707;SDS011;3896;48.758;8.888;2022-10-30T07:58:19;6.73;;;4.53;;
7707;SDS011;3896;48.758;8.888;2022-10-30T08:00:45;7.93;;;3.90;;
7707;SDS011;3896;48.758;8.888;2022-10-30T08:03:11;5.80;;;3.70;;
7707;SDS011;3896;48.758;8.888;2022-10-30T08:05:37;4.87;;;3.63;;
7707;SDS011;3896;48.758;8.888;2022-10-30T08:08:03;5.67;;;4.77;;
7707;SDS011;3896;48.758;8.888;2022-10-30T08:10:29;14.07;;;4.33;;
7707;SDS011;3896;48.758;8.888;2022-10-30T08:12:55;7.93;;;4.03;;
7707;SDS011;3896;48.758;8.888;2022-10-30T08:15:20;10.33;;;3.80;;
7707;SDS011;3896;48.758;8.888;2022-10-30T08:17:50;6.07;;;3.90;;
7707;SDS011;3896;48.758;8.888;2022-10-30T08:20:17;8.00;;;4.60;;
7707;SDS011;3896;48.758;8.888;2022-10-30T08:22:45;9.83;;;4.23;;
7707;SDS011;3896;48.758;8.888;2022-10-30T08:25:15;8.07;;;4.93;;
7707;SDS011;3896;48.758;8.888;2022-10-30T08:27:55;5.13;;;2.53;;
7707;SDS011;3896;48.758;8.888;2022-10-30T08:30:26;8.20;;;3.83;;
7707;SDS011;3896;48.758;8.888;2022-10-30T08:32:57;5.00;;;3.87;;
7707;SDS011;3896;48.758;8.888;2022-10-30T08:35:23;7.87;;;3.53;;
7707;SDS011;3896;48.758;8.888;2022-10-30T08:37:53;6.33;;;3.30;;
7707;SDS011;3896;48.758;8.888;2022-10-30T08:40:20;8.43;;;4.00;;
7707;SDS011;3896;48.758;8.888;2022-10-30T08:42:49;9.57;;;3.57;;
7707;SDS011;3896;48.758;8.888;2022-10-30T08:45:19;7.43;;;4.20;;
7707;SDS011;3896;48.758;8.888;2022-10-30T08:47:45;6.27;;;3.73;;
7707;SDS011;3896;48.758;8.888;2022-10-30T08:50:11;6.83;;;4.13;;
7707;SDS011;3896;48.758;8.888;2022-10-30T08:52:37;6.67;;;3.50;;
7707;SDS011;3896;48.758;8.888;2022-10-30T08:55:02;10.27;;;3.70;;
7707;SDS011;3896;48.758;8.888;2022-10-30T08:57:31;8.23;;;3.53;;
7707;SDS011;3896;48.758;8.888;2022-10-30T09:00:03;10.70;;;3.87;;
7707;SDS011;3896;48.758;8.888;2022-10-30T09:02:30;5.70;;;3.60;;
7707;SDS011;3896;48.758;8.888;2022-10-30T09:04:55;8.40;;;3.93;;
7707;SDS011;3896;48.758;8.888;2022-10-30T09:07:21;8.63;;;3.73;;
7707;SDS011;3896;48.758;8.888;2022-10-30T09:09:46;8.00;;;4.70;;
7707;SDS011;3896;48.758;8.888;2022-10-30T09:12:12;8.17;;;3.40;;
7707;SDS011;3896;48.758;8.888;2022-10-30T09:14:38;9.30;;;3.57;;
7707;SDS011;3896;48.758;8.888;2022-10-30T09:17:03;10.70;;;3.77;;
7707;SDS011;3896;48.758;8.888;2022-10-30T09:19:29;6.27;;;3.60;;
7707;SDS011;3896;48.758;8.888;2022-10-30T09:21:55;6.47;;;2.97;;
7707;SDS011;3896;48.758;8.888;2022-10-30T09:24:20;9.43;;;3.60;;
7707;SDS011;3896;48.758;8.888;2022-10-30T09:26:46;4.97;;;3.07;;
7707;SDS011;3896;48.758;8.888;2022-10-30T09:29:11;9.97;;;3.57;;
7707;SDS011;3896;48.758;8.888;2022-10-30T09:31:37;5.90;;;2.70;;
7707;SDS011;3896;48.758;8.888;2022-10-30T09:34:03;9.03;;;3.57;;
7707;SDS011;3896;48.758;8.888;2022-10-30T09:36:28;6.40;;;3.33;;
7707;SDS011;3896;48.758;8.888;2022-10-30T09:38:56;7.37;;;3.40;;
7707;SDS011;3896;48.758;8.888;2022-10-30T09:44:19;6.07;;;3.80;;
7707;SDS011;3896;48.758;8.888;2022-10-30T09:50:01;5.60;;;3.17;;
7707;SDS011;3896;48.758;8.888;2022-10-30T09:52:29;8.43;;;3.77;;
7707;SDS011;3896;48.758;8.888;2022-10-30T09:55:22;7.13;;;3.00;;
7707;SDS011;3896;48.758;8.888;2022-10-30T09:57:56;5.10;;;3.00;;
7707;SDS011;3896;48.758;8.888;2022-10-30T10:00:43;7.67;;;2.60;;
7707;SDS011;3896;48.758;8.888;2022-10-30T10:06:01;6.50;;;2.80;;
7707;SDS011;3896;48.758;8.888;2022-10-30T10:08:38;7.27;;;2.70;;
7707;SDS011;3896;48.758;8.888;2022-10-30T10:11:11;10.10;;;2.93;;
7707;SDS011;3896;48.758;8.888;2022-10-30T10:14:03;7.43;;;2.63;;
7707;SDS011;3896;48.758;8.888;2022-10-30T10:16:37;4.27;;;2.30;;
7707;SDS011;3896;48.758;8.888;2022-10-30T10:21:30;5.10;;;2.80;;
7707;SDS011;3896;48.758;8.888;2022-10-30T10:24:01;5.77;;;2.80;;
7707;SDS011;3896;48.758;8.888;2022-10-30T10:26:38;3.00;;;1.80;;
7707;SDS011;3896;48.758;8.888;2022-10-30T10:38:42;4.63;;;2.00;;
7707;SDS011;3896;48.758;8.888;2022-10-30T10:41:17;3.00;;;2.47;;
7707;SDS011;3896;48.758;8.888;2022-10-30T10:52:46;4.13;;;2.10;;
7707;SDS011;3896;48.758;8.888;2022-10-30T10:55:34;6.20;;;2.20;;
7707;SDS011;3896;48.758;8.888;2022-10-30T10:58:07;8.60;;;2.33;;
7707;SDS011;3896;48.758;8.888;2022-10-30T11:00:38;5.60;;;2.17;;
7707;SDS011;3896;48.758;8.888;2022-10-30T11:05:38;5.57;;;2.03;;
7707;SDS011;3896;48.758;8.888;2022-10-30T11:10:58;4.17;;;2.17;;
7707;SDS011;3896;48.758;8.888;2022-10-30T11:13:36;6.23;;;1.80;;
7707;SDS011;3896;48.758;8.888;2022-10-30T11:18:41;4.47;;;2.13;;
7707;SDS011;3896;48.758;8.888;2022-10-30T11:21:17;2.23;;;1.83;;
7707;SDS011;3896;48.758;8.888;2022-10-30T11:23:46;4.77;;;2.00;;
7707;SDS011;3896;48.758;8.888;2022-10-30T11:31:27;6.03;;;1.67;;
7707;SDS011;3896;48.758;8.888;2022-10-30T11:36:41;2.30;;;1.67;;
7707;SDS011;3896;48.758;8.888;2022-10-30T11:39:08;4.87;;;1.67;;
7707;SDS011;3896;48.758;8.888;2022-10-30T11:41:36;3.70;;;1.40;;
7707;SDS011;3896;48.758;8.888;2022-10-30T11:44:03;2.63;;;1.37;;
7707;SDS011;3896;48.758;8.888;2022-10-30T11:46:30;3.30;;;1.50;;
7707;SDS011;3896;48.758;8.888;2022-10-30T11:48:59;2.27;;;1.67;;
7707;SDS011;3896;48.758;8.888;2022-10-30T11:51:33;2.87;;;1.90;;
7707;SDS011;3896;48.758;8.888;2022-10-30T11:54:03;1.80;;;1.53;;
7707;SDS011;3896;48.758;8.888;2022-10-30T11:56:30;3.97;;;1.50;;
7707;SDS011;3896;48.758;8.888;2022-10-30T11:58:58;5.20;;;1.60;;
7707;SDS011;3896;48.758;8.888;2022-10-30T12:01:28;3.20;;;1.63;;
7707;SDS011;3896;48.758;8.888;2022-10-30T12:03:55;3.97;;;1.47;;
7707;SDS011;3896;48.758;8.888;2022-10-30T12:06:36;4.20;;;1.70;;
7707;SDS011;3896;48.758;8.888;2022-10-30T12:09:19;3.47;;;1.10;;
7707;SDS011;3896;48.758;8.888;2022-10-30T12:11:45;2.30;;;1.17;;
7707;SDS011;3896;48.758;8.888;2022-10-30T12:14:22;6.67;;;1.90;;
7707;SDS011;3896;48.758;8.888;2022-10-30T12:16:51;3.73;;;1.27;;
7707;SDS011;3896;48.758;8.888;2022-10-30T12:19:20;3.10;;;1.10;;
7707;SDS011;3896;48.758;8.888;2022-10-30T12:21:48;2.17;;;1.70;;
7707;SDS011;3896;48.758;8.888;2022-10-30T12:24:20;2.77;;;1.17;;
7707;SDS011;3896;48.758;8.888;2022-10-30T12:26:51;1.90;;;1.23;;
7707;SDS011;3896;48.758;8.888;2022-10-30T12:29:19;1.43;;;1.30;;
7707;SDS011;3896;48.758;8.888;2022-10-30T12:42:33;6.20;;;1.73;;
7707;SDS011;3896;48.758;8.888;2022-10-30T12:45:20;2.90;;;1.60;;
7707;SDS011;3896;48.758;8.888;2022-10-30T12:50:39;6.20;;;1.80;;
7707;SDS011;3896;48.758;8.888;2022-10-30T12:53:26;2.70;;;1.60;;
7707;SDS011;3896;48.758;8.888;2022-10-30T12:56:04;2.77;;;1.27;;
7707;SDS011;3896;48.758;8.888;2022-10-30T13:01:47;4.93;;;1.73;;
7707;SDS011;3896;48.758;8.888;2022-10-30T13:04:16;3.43;;;1.50;;
7707;SDS011;3896;48.758;8.888;2022-10-30T13:06:54;2.33;;;1.60;;
7707;SDS011;3896;48.758;8.888;2022-10-30T13:12:35;1.87;;;1.27;;
7707;SDS011;3896;48.758;8.888;2022-10-30T13:15:09;2.13;;;1.30;;
7707;SDS011;3896;48.758;8.888;2022-10-30T13:17:50;3.87;;;1.60;;
7707;SDS011;3896;48.758;8.888;2022-10-30T13:20:16;3.63;;;2.10;;
7707;SDS011;3896;48.758;8.888;2022-10-30T13:22:46;3.43;;;1.80;;
7707;SDS011;3896;48.758;8.888;2022-10-30T13:30:18;4.97;;;1.90;;
7707;SDS011;3896;48.758;8.888;2022-10-30T13:49:37;3.22;;;1.30;;
7707;SDS011;3896;48.758;8.888;2022-10-30T13:52:25;5.53;;;1.60;;
7707;SDS011;3896;48.758;8.888;2022-10-30T13:55:03;1.10;;;1.00;;
7707;SDS011;3896;48.758;8.888;2022-10-30T13:57:44;3.08;;;1.25;;
7707;SDS011;3896;48.758;8.888;2022-10-30T14:00:20;4.55;;;1.63;;
7707;SDS011;3896;48.758;8.888;2022-10-30T14:11:10;1.95;;;1.15;;
7707;SDS011;3896;48.758;8.888;2022-10-30T14:13:45;3.60;;;1.00;;
7707;SDS011;3896;48.758;8.888;2022-10-30T14:16:31;2.00;;;1.10;;
7707;SDS011;3896;48.758;8.888;2022-10-30T14:19:14;4.25;;;1.45;;
7707;SDS011;3896;48.758;8.888;2022-10-30T14:21:43;3.63;;;1.10;;
7707;SDS011;3896;48.758;8.888;2022-10-30T14:26:46;2.35;;;1.17;;
7707;SDS011;3896;48.758;8.888;2022-10-30T14:32:01;3.75;;;1.58;;
7707;SDS011;3896;48.758;8.888;2022-10-30T14:34:40;5.75;;;1.80;;
7707;SDS011;3896;48.758;8.888;2022-10-30T14:37:06;2.88;;;1.27;;
7707;SDS011;3896;48.758;8.888;2022-10-30T14:39:39;4.88;;;1.50;;
7707;SDS011;3896;48.758;8.888;2022-10-30T14:58:39;9.70;;;1.67;;
7707;SDS011;3896;48.758;8.888;2022-10-30T15:06:22;2.60;;;1.67;;
7707;SDS011;3896;48.758;8.888;2022-10-30T15:11:53;3.80;;;1.50;;
7707;SDS011;3896;48.758;8.888;2022-10-30T15:14:40;2.70;;;1.40;;
7707;SDS011;3896;48.758;8.888;2022-10-30T15:17:15;1.43;;;1.30;;
7707;SDS011;3896;48.758;8.888;2022-10-30T15:19:48;2.10;;;1.47;;
7707;SDS011;3896;48.758;8.888;2022-10-30T15:22:15;4.50;;;1.50;;
7707;SDS011;3896;48.758;8.888;2022-10-30T15:24:44;1.77;;;1.30;;
7707;SDS011;3896;48.758;8.888;2022-10-30T15:27:13;2.83;;;1.17;;
7707;SDS011;3896;48.758;8.888;2022-10-30T15:29:43;2.33;;;1.27;;
7707;SDS011;3896;48.758;8.888;2022-10-30T15:32:18;2.17;;;1.30;;
7707;SDS011;3896;48.758;8.888;2022-10-30T15:34:53;1.90;;;1.37;;
7707;SDS011;3896;48.758;8.888;2022-10-30T15:37:25;8.27;;;1.77;;
7707;SDS011;3896;48.758;8.888;2022-10-30T15:40:24;7.30;;;1.87;;
7707;SDS011;3896;48.758;8.888;2022-10-30T15:42:44;1.93;;;1.73;;
7707;SDS011;3896;48.758;8.888;2022-10-30T15:45:14;2.43;;;1.40;;
7707;SDS011;3896;48.758;8.888;2022-10-30T15:47:47;3.23;;;1.33;;
7707;SDS011;3896;48.758;8.888;2022-10-30T15:50:33;2.00;;;1.10;;
7707;SDS011;3896;48.758;8.888;2022-10-30T15:53:00;2.57;;;1.90;;
7707;SDS011;3896;48.758;8.888;2022-10-30T15:55:30;1.27;;;1.10;;
7707;SDS011;3896;48.758;8.888;2022-10-30T15:57:57;1.37;;;1.27;;
7707;SDS011;3896;48.758;8.888;2022-10-30T16:00:26;3.70;;;1.57;;
7707;SDS011;3896;48.758;8.888;2022-10-30T16:05:29;3.33;;;1.33;;
7707;SDS011;3896;48.758;8.888;2022-10-30T16:07:56;3.43;;;1.40;;
7707;SDS011;3896;48.758;8.888;2022-10-30T16:10:24;5.80;;;1.67;;
7707;SDS011;3896;48.758;8.888;2022-10-30T16:12:55;3.30;;;1.60;;
7707;SDS011;3896;48.758;8.888;2022-10-30T16:15:36;3.30;;;1.40;;
7707;SDS011;3896;48.758;8.888;2022-10-30T16:20:29;3.43;;;1.60;;
7707;SDS011;3896;48.758;8.888;2022-10-30T16:22:54;1.97;;;1.27;;
7707;SDS011;3896;48.758;8.888;2022-10-30T16:25:21;2.23;;;1.03;;
7707;SDS011;3896;48.758;8.888;2022-10-30T16:27:46;3.27;;;1.50;;
7707;SDS011;3896;48.758;8.888;2022-10-30T16:30:13;4.43;;;1.80;;
7707;SDS011;3896;48.758;8.888;2022-10-30T16:32:40;1.73;;;1.57;;
7707;SDS011;3896;48.758;8.888;2022-10-30T16:35:10;2.10;;;1.90;;
7707;SDS011;3896;48.758;8.888;2022-10-30T16:37:37;1.90;;;1.23;;
7707;SDS011;3896;48.758;8.888;2022-10-30T16:40:11;4.50;;;1.70;;
7707;SDS011;3896;48.758;8.888;2022-10-30T16:42:50;4.90;;;1.67;;
7707;SDS011;3896;48.758;8.888;2022-10-30T16:47:51;3.50;;;1.20;;
7707;SDS011;3896;48.758;8.888;2022-10-30T16:50:18;2.20;;;1.40;;
7707;SDS011;3896;48.758;8.888;2022-10-30T16:52:44;3.47;;;1.30;;
7707;SDS011;3896;48.758;8.888;2022-10-30T16:55:18;2.23;;;1.50;;
7707;SDS011;3896;48.758;8.888;2022-10-30T16:57:46;1.83;;;1.40;;
7707;SDS011;3896;48.758;8.888;2022-10-30T17:00:23;4.20;;;1.90;;
7707;SDS011;3896;48.758;8.888;2022-10-30T17:02:51;2.77;;;1.40;;
7707;SDS011;3896;48.758;8.888;2022-10-30T17:05:22;7.80;;;2.23;;
7707;SDS011;3896;48.758;8.888;2022-10-30T17:07:54;6.40;;;2.00;;
7707;SDS011;3896;48.758;8.888;2022-10-30T17:10:29;2.23;;;1.70;;
7707;SDS011;3896;48.758;8.888;2022-10-30T17:13:40;3.03;;;1.93;;
7707;SDS011;3896;48.758;8.888;2022-10-30T17:15:56;4.00;;;1.57;;
7707;SDS011;3896;48.758;8.888;2022-10-30T17:18:27;2.87;;;1.37;;
7707;SDS011;3896;48.758;8.888;2022-10-30T17:21:09;2.30;;;1.40;;
7707;SDS011;3896;48.758;8.888;2022-10-30T17:23:44;3.53;;;1.63;;
7707;SDS011;3896;48.758;8.888;2022-10-30T17:26:10;2.50;;;1.57;;
7707;SDS011;3896;48.758;8.888;2022-10-30T17:28:37;5.97;;;1.73;;
7707;SDS011;3896;48.758;8.888;2022-10-30T17:36:26;2.00;;;1.60;;
7707;SDS011;3896;48.758;8.888;2022-10-30T17:38:52;2.63;;;1.80;;
7707;SDS011;3896;48.758;8.888;2022-10-30T17:41:17;5.10;;;2.23;;
7707;SDS011;3896;48.758;8.888;2022-10-30T17:43:47;2.53;;;1.87;;
7707;SDS011;3896;48.758;8.888;2022-10-30T17:46:14;2.43;;;1.57;;
7707;SDS011;3896;48.758;8.888;2022-10-30T17:48:40;2.87;;;1.80;;
7707;SDS011;3896;48.758;8.888;2022-10-30T17:51:08;6.47;;;2.17;;
7707;SDS011;3896;48.758;8.888;2022-10-30T17:53:37;2.10;;;1.90;;
7707;SDS011;3896;48.758;8.888;2022-10-30T17:56:04;2.83;;;2.00;;
7707;SDS011;3896;48.758;8.888;2022-10-30T17:58:37;4.47;;;2.20;;
7707;SDS011;3896;48.758;8.888;2022-10-30T18:01:02;2.70;;;1.97;;
7707;SDS011;3896;48.758;8.888;2022-10-30T18:03:30;2.60;;;1.97;;
7707;SDS011;3896;48.758;8.888;2022-10-30T18:06:08;2.20;;;1.93;;
7707;SDS011;3896;48.758;8.888;2022-10-30T18:08:40;4.13;;;1.90;;
7707;SDS011;3896;48.758;8.888;2022-10-30T18:11:07;4.80;;;2.20;;